createdAt,value
2017-12-03T00:00:12.529Z,28
2017-12-03T00:01:12.777Z,28
2017-12-03T00:02:14.518Z,28
2017-12-03T00:03:14.534Z,28
2017-12-03T00:04:14.609Z,28
2017-12-03T00:05:12.957Z,28
2017-12-03T00:06:13.011Z,28
2017-12-03T00:07:14.764Z,28
2017-12-03T00:08:13.074Z,28
2017-12-03T00:09:12.905Z,28
2017-12-03T00:10:14.856Z,28
2017-12-03T00:11:15.133Z,28
2017-12-03T00:12:15.168Z,28
2017-12-03T00:13:15.020Z,28
2017-12-03T00:14:15.271Z,28
2017-12-03T00:15:15.103Z,28
2017-12-03T00:16:15.142Z,28
2017-12-03T00:17:13.471Z,28
2017-12-03T00:18:13.333Z,28
2017-12-03T00:19:15.309Z,28
2017-12-03T00:20:13.644Z,28
2017-12-03T00:21:13.612Z,28
2017-12-03T00:22:15.445Z,28
2017-12-03T00:23:13.548Z,28
2017-12-03T00:24:13.614Z,28
2017-12-03T00:25:13.839Z,28
2017-12-03T00:26:13.709Z,28
2017-12-03T00:27:15.913Z,28
2017-12-03T00:28:14.020Z,28
2017-12-03T00:29:14.031Z,28
2017-12-03T00:30:15.765Z,28
2017-12-03T00:31:15.999Z,28
2017-12-03T00:32:14.129Z,28
2017-12-03T00:33:16.104Z,28
2017-12-03T00:34:15.904Z,28
2017-12-03T00:35:17.193Z,28
2017-12-03T00:36:14.044Z,28
2017-12-03T00:37:16.217Z,28
2017-12-03T00:38:16.314Z,28
2017-12-03T00:39:16.047Z,28
2017-12-03T00:40:16.085Z,28
2017-12-03T00:41:16.131Z,28
2017-12-03T00:42:16.396Z,28
2017-12-03T00:43:14.551Z,28
2017-12-03T00:44:16.552Z,27.9
2017-12-03T00:45:16.606Z,27.9
2017-12-03T00:46:16.645Z,28
2017-12-03T00:47:14.757Z,27.9
2017-12-03T00:48:16.480Z,27.9
2017-12-03T00:49:14.777Z,27.9
2017-12-03T00:50:14.855Z,27.9
2017-12-03T00:51:16.779Z,27.9
2017-12-03T00:52:14.889Z,27.9
2017-12-03T00:53:16.852Z,27.9
2017-12-03T00:54:14.851Z,27.9
2017-12-03T00:55:16.968Z,27.9
2017-12-03T00:56:15.109Z,27.9
2017-12-03T00:57:14.943Z,27.9
2017-12-03T00:58:17.107Z,27.9
2017-12-03T00:59:16.914Z,27.9
2017-12-03T01:00:15.050Z,27.9
2017-12-03T01:01:15.303Z,27.9
2017-12-03T01:02:15.312Z,27.9
2017-12-03T01:03:15.136Z,27.9
2017-12-03T01:04:15.385Z,27.9
2017-12-03T01:05:15.515Z,27.9
2017-12-03T01:06:17.169Z,27.9
2017-12-03T01:07:15.468Z,27.9
2017-12-03T01:08:15.285Z,27.9
2017-12-03T01:09:17.262Z,27.9
2017-12-03T01:10:15.591Z,27.9
2017-12-03T01:11:17.343Z,27.9
2017-12-03T01:12:15.451Z,27.9
2017-12-03T01:13:17.656Z,27.9
2017-12-03T01:14:15.761Z,27.9
2017-12-03T01:15:19.018Z,27.9
2017-12-03T01:16:15.832Z,27.9
2017-12-03T01:17:17.592Z,27.9
2017-12-03T01:18:17.592Z,27.9
2017-12-03T01:19:16.012Z,27.9
2017-12-03T01:20:15.865Z,27.9
2017-12-03T01:21:15.937Z,27.9
2017-12-03T01:22:18.105Z,27.9
2017-12-03T01:23:16.028Z,27.9
2017-12-03T01:24:16.283Z,27.9
2017-12-03T01:25:18.284Z,27.9
2017-12-03T01:26:18.401Z,27.9
2017-12-03T01:27:16.523Z,27.9
2017-12-03T01:28:18.456Z,27.9
2017-12-03T01:29:18.319Z,27.9
2017-12-03T01:30:18.597Z,27.9
2017-12-03T01:31:18.641Z,27.9
2017-12-03T01:32:18.463Z,27.9
2017-12-03T01:33:18.718Z,27.9
2017-12-03T01:34:18.511Z,27.9
2017-12-03T01:35:18.584Z,27.9
2017-12-03T01:36:16.887Z,27.9
2017-12-03T01:37:17.043Z,27.9
2017-12-03T01:38:16.959Z,27.9
2017-12-03T01:39:17.002Z,27.9
2017-12-03T01:40:16.897Z,27.9
2017-12-03T01:41:18.804Z,27.9
2017-12-03T01:42:17.144Z,27.9
2017-12-03T01:43:17.240Z,27.9
2017-12-03T01:44:17.278Z,27.8
2017-12-03T01:45:17.479Z,27.9
2017-12-03T01:46:19.414Z,27.9
2017-12-03T01:47:17.470Z,27.9
2017-12-03T01:48:17.381Z,27.9
2017-12-03T01:49:17.439Z,27.9
2017-12-03T01:50:17.696Z,27.8
2017-12-03T01:51:19.429Z,27.9
2017-12-03T01:52:17.820Z,27.8
2017-12-03T01:53:19.577Z,27.9
2017-12-03T01:54:17.868Z,27.8
2017-12-03T01:55:19.701Z,27.9
2017-12-03T01:56:17.861Z,27.8
2017-12-03T01:57:17.927Z,27.9
2017-12-03T01:58:19.888Z,27.8
2017-12-03T01:59:18.515Z,27.9
2017-12-03T02:00:19.475Z,27.8
2017-12-03T02:01:18.288Z,27.9
2017-12-03T02:02:20.318Z,27.8
2017-12-03T02:03:20.155Z,27.8
2017-12-03T02:04:20.272Z,27.8
2017-12-03T02:05:18.318Z,27.8
2017-12-03T02:06:20.272Z,27.8
2017-12-03T02:07:20.516Z,27.8
2017-12-03T02:08:18.645Z,27.8
2017-12-03T02:09:20.386Z,27.8
2017-12-03T02:10:18.504Z,27.8
2017-12-03T02:11:18.759Z,27.8
2017-12-03T02:12:20.755Z,27.8
2017-12-03T02:13:20.624Z,27.8
2017-12-03T02:14:20.879Z,27.8
2017-12-03T02:15:19.092Z,27.8
2017-12-03T02:16:19.400Z,27.8
2017-12-03T02:17:19.473Z,27.8
2017-12-03T02:18:21.242Z,27.8
2017-12-03T02:19:19.287Z,27.8
2017-12-03T02:20:21.524Z,27.8
2017-12-03T02:21:19.463Z,27.8
2017-12-03T02:22:19.578Z,27.8
2017-12-03T02:23:21.113Z,27.8
2017-12-03T02:24:19.234Z,27.8
2017-12-03T02:25:19.863Z,27.8
2017-12-03T02:26:19.589Z,27.8
2017-12-03T02:27:19.446Z,27.8
2017-12-03T02:28:21.329Z,27.8
2017-12-03T02:29:21.335Z,27.8
2017-12-03T02:30:21.617Z,27.8
2017-12-03T02:31:21.631Z,27.8
2017-12-03T02:32:19.619Z,27.8
2017-12-03T02:33:21.808Z,27.8
2017-12-03T02:34:19.743Z,27.8
2017-12-03T02:35:19.965Z,27.8
2017-12-03T02:36:19.744Z,27.8
2017-12-03T02:37:21.768Z,27.8
2017-12-03T02:38:21.834Z,27.8
2017-12-03T02:39:19.921Z,27.8
2017-12-03T02:40:22.113Z,27.8
2017-12-03T02:41:22.180Z,27.8
2017-12-03T02:42:20.079Z,27.8
2017-12-03T02:43:20.166Z,27.8
2017-12-03T02:44:20.348Z,27.8
2017-12-03T02:45:20.591Z,27.8
2017-12-03T02:46:20.551Z,27.8
2017-12-03T02:47:22.292Z,27.8
2017-12-03T02:48:22.565Z,27.8
2017-12-03T02:49:22.392Z,27.8
2017-12-03T02:50:22.768Z,27.8
2017-12-03T02:51:20.635Z,27.8
2017-12-03T02:52:22.790Z,27.8
2017-12-03T02:53:21.074Z,27.8
2017-12-03T02:54:20.676Z,27.8
2017-12-03T02:55:22.650Z,27.8
2017-12-03T02:56:22.710Z,27.8
2017-12-03T02:57:21.102Z,27.8
2017-12-03T02:58:23.131Z,27.8
2017-12-03T02:59:21.072Z,27.8
2017-12-03T03:00:23.195Z,27.8
2017-12-03T03:01:23.260Z,27.8
2017-12-03T03:02:23.135Z,27.8
2017-12-03T03:03:21.446Z,27.8
2017-12-03T03:04:21.301Z,27.8
2017-12-03T03:05:23.249Z,27.8
2017-12-03T03:06:21.467Z,27.8
2017-12-03T03:07:21.678Z,27.8
2017-12-03T03:08:23.669Z,27.8
2017-12-03T03:09:21.552Z,27.8
2017-12-03T03:10:23.697Z,27.8
2017-12-03T03:11:23.589Z,27.8
2017-12-03T03:12:21.696Z,27.8
2017-12-03T03:13:21.762Z,27.8
2017-12-03T03:14:23.736Z,27.8
2017-12-03T03:15:23.804Z,27.7
2017-12-03T03:16:23.868Z,27.7
2017-12-03T03:17:22.134Z,27.7
2017-12-03T03:18:21.976Z,27.7
2017-12-03T03:19:22.035Z,27.8
2017-12-03T03:20:24.229Z,27.7
2017-12-03T03:21:24.067Z,27.7
2017-12-03T03:22:24.326Z,27.7
2017-12-03T03:23:24.175Z,27.7
2017-12-03T03:24:24.435Z,27.7
2017-12-03T03:25:24.510Z,27.7
2017-12-03T03:26:22.619Z,27.7
2017-12-03T03:27:22.473Z,27.7
2017-12-03T03:28:22.520Z,27.7
2017-12-03T03:29:22.989Z,27.7
2017-12-03T03:30:22.805Z,27.7
2017-12-03T03:31:24.536Z,27.7
2017-12-03T03:32:24.632Z,27.7
2017-12-03T03:33:22.943Z,27.7
2017-12-03T03:34:22.812Z,27.7
2017-12-03T03:35:24.718Z,27.7
2017-12-03T03:36:24.940Z,27.7
2017-12-03T03:37:23.108Z,27.7
2017-12-03T03:38:22.961Z,27.7
2017-12-03T03:39:22.981Z,27.7
2017-12-03T03:40:24.957Z,27.7
2017-12-03T03:41:23.245Z,27.7
2017-12-03T03:42:23.303Z,27.7
2017-12-03T03:43:23.116Z,27.7
2017-12-03T03:44:23.193Z,27.7
2017-12-03T03:45:23.430Z,27.7
2017-12-03T03:46:25.449Z,27.7
2017-12-03T03:47:25.527Z,27.7
2017-12-03T03:48:25.376Z,27.7
2017-12-03T03:49:25.445Z,27.7
2017-12-03T03:50:23.558Z,27.7
2017-12-03T03:51:25.543Z,27.7
2017-12-03T03:52:23.643Z,27.7
2017-12-03T03:53:25.878Z,27.7
2017-12-03T03:54:23.810Z,27.7
2017-12-03T03:55:25.767Z,27.7
2017-12-03T03:56:25.767Z,27.7
2017-12-03T03:57:24.069Z,27.7
2017-12-03T03:58:25.871Z,27.7
2017-12-03T03:59:23.980Z,27.7
2017-12-03T04:00:25.926Z,27.7
2017-12-03T04:01:24.238Z,27.7
2017-12-03T04:02:24.211Z,27.7
2017-12-03T04:03:24.090Z,27.7
2017-12-03T04:04:24.148Z,27.7
2017-12-03T04:05:26.091Z,27.7
2017-12-03T04:06:26.354Z,27.7
2017-12-03T04:07:26.199Z,27.7
2017-12-03T04:08:24.291Z,27.6
2017-12-03T04:09:26.258Z,27.6
2017-12-03T04:10:24.557Z,27.7
2017-12-03T04:11:26.308Z,27.7
2017-12-03T04:12:26.431Z,27.7
2017-12-03T04:13:26.497Z,27.7
2017-12-03T04:14:26.521Z,27.7
2017-12-03T04:15:26.770Z,27.7
2017-12-03T04:16:25.192Z,27.7
2017-12-03T04:17:24.957Z,27.7
2017-12-03T04:18:24.886Z,27.7
2017-12-03T04:19:25.064Z,27.7
2017-12-03T04:20:24.985Z,27.7
2017-12-03T04:21:27.040Z,27.7
2017-12-03T04:22:24.925Z,27.7
2017-12-03T04:23:24.942Z,27.7
2017-12-03T04:24:26.875Z,27.7
2017-12-03T04:25:27.110Z,27.7
2017-12-03T04:26:25.069Z,27.6
2017-12-03T04:27:26.986Z,27.6
2017-12-03T04:28:27.229Z,27.6
2017-12-03T04:29:25.164Z,27.6
2017-12-03T04:30:27.312Z,27.6
2017-12-03T04:31:27.174Z,27.6
2017-12-03T04:32:25.320Z,27.6
2017-12-03T04:33:25.554Z,27.6
2017-12-03T04:34:27.532Z,27.6
2017-12-03T04:35:27.315Z,27.6
2017-12-03T04:36:27.360Z,27.6
2017-12-03T04:37:27.544Z,27.6
2017-12-03T04:38:27.403Z,27.6
2017-12-03T04:39:27.622Z,27.6
2017-12-03T04:40:27.697Z,27.6
2017-12-03T04:41:27.468Z,27.6
2017-12-03T04:42:27.518Z,27.6
2017-12-03T04:43:27.763Z,27.6
2017-12-03T04:44:27.595Z,27.6
2017-12-03T04:45:25.759Z,27.6
2017-12-03T04:46:27.914Z,27.6
2017-12-03T04:47:25.755Z,27.7
2017-12-03T04:48:25.975Z,27.6
2017-12-03T04:49:25.888Z,27.6
2017-12-03T04:50:25.862Z,27.6
2017-12-03T04:51:25.919Z,27.6
2017-12-03T04:52:27.910Z,27.6
2017-12-03T04:53:26.204Z,27.6
2017-12-03T04:54:27.966Z,27.6
2017-12-03T04:55:27.987Z,27.6
2017-12-03T04:56:26.108Z,27.6
2017-12-03T04:57:28.044Z,27.6
2017-12-03T04:58:28.154Z,27.6
2017-12-03T04:59:26.539Z,27.6
2017-12-03T05:00:28.669Z,27.6
2017-12-03T05:01:28.261Z,27.6
2017-12-03T05:02:26.494Z,27.6
2017-12-03T05:03:28.652Z,27.6
2017-12-03T05:04:26.604Z,27.6
2017-12-03T05:05:26.878Z,27.6
2017-12-03T05:06:26.698Z,27.6
2017-12-03T05:07:26.937Z,27.6
2017-12-03T05:08:28.690Z,27.6
2017-12-03T05:09:26.970Z,27.6
2017-12-03T05:10:27.075Z,27.6
2017-12-03T05:11:28.754Z,27.6
2017-12-03T05:12:29.005Z,27.6
2017-12-03T05:13:28.799Z,27.6
2017-12-03T05:14:26.938Z,27.6
2017-12-03T05:15:29.131Z,27.6
2017-12-03T05:16:27.072Z,27.6
2017-12-03T05:17:29.018Z,27.6
2017-12-03T05:18:29.239Z,27.6
2017-12-03T05:19:27.156Z,27.6
2017-12-03T05:20:29.324Z,27.6
2017-12-03T05:21:27.433Z,27.6
2017-12-03T05:22:27.437Z,27.6
2017-12-03T05:23:27.574Z,27.6
2017-12-03T05:24:29.294Z,27.6
2017-12-03T05:25:29.305Z,27.6
2017-12-03T05:26:27.426Z,27.6
2017-12-03T05:27:27.669Z,27.6
2017-12-03T05:28:29.401Z,27.6
2017-12-03T05:29:29.463Z,27.6
2017-12-03T05:30:29.477Z,27.6
2017-12-03T05:31:29.706Z,27.6
2017-12-03T05:32:27.828Z,27.6
2017-12-03T05:33:27.656Z,27.6
2017-12-03T05:34:30.186Z,27.6
2017-12-03T05:35:28.008Z,27.6
2017-12-03T05:36:28.062Z,27.6
2017-12-03T05:37:30.062Z,27.6
2017-12-03T05:38:29.909Z,27.6
2017-12-03T05:39:28.220Z,27.6
2017-12-03T05:40:30.289Z,27.6
2017-12-03T05:41:28.320Z,27.6
2017-12-03T05:42:30.067Z,27.6
2017-12-03T05:43:30.145Z,27.6
2017-12-03T05:44:28.253Z,27.6
2017-12-03T05:45:30.197Z,27.6
2017-12-03T05:46:28.506Z,27.6
2017-12-03T05:47:30.219Z,27.6
2017-12-03T05:48:30.241Z,27.6
2017-12-03T05:49:30.493Z,27.6
2017-12-03T05:50:30.469Z,27.6
2017-12-03T05:51:35.032Z,27.6
2017-12-03T05:52:28.657Z,27.6
2017-12-03T05:53:30.452Z,27.6
2017-12-03T05:54:30.454Z,27.6
2017-12-03T05:55:28.758Z,27.6
2017-12-03T05:56:30.776Z,27.6
2017-12-03T05:57:30.564Z,27.6
2017-12-03T05:58:30.618Z,27.6
2017-12-03T05:59:28.934Z,27.6
2017-12-03T06:00:30.690Z,27.6
2017-12-03T06:01:28.988Z,27.6
2017-12-03T06:02:30.764Z,27.6
2017-12-03T06:03:28.928Z,27.6
2017-12-03T06:04:29.212Z,27.5
2017-12-03T06:05:30.969Z,27.6
2017-12-03T06:06:31.187Z,27.6
2017-12-03T06:07:29.331Z,27.6
2017-12-03T06:08:29.232Z,27.6
2017-12-03T06:09:31.380Z,27.6
2017-12-03T06:10:29.263Z,27.6
2017-12-03T06:11:29.323Z,27.6
2017-12-03T06:12:31.269Z,27.6
2017-12-03T06:13:31.486Z,27.6
2017-12-03T06:14:31.389Z,27.6
2017-12-03T06:15:29.674Z,27.6
2017-12-03T06:16:31.978Z,27.6
2017-12-03T06:17:31.421Z,27.6
2017-12-03T06:18:31.539Z,27.6
2017-12-03T06:19:31.767Z,27.6
2017-12-03T06:20:29.957Z,27.6
2017-12-03T06:21:30.000Z,27.6
2017-12-03T06:22:29.783Z,27.6
2017-12-03T06:23:30.011Z,27.6
2017-12-03T06:24:29.829Z,27.6
2017-12-03T06:25:31.762Z,27.6
2017-12-03T06:26:29.900Z,27.6
2017-12-03T06:27:31.845Z,27.6
2017-12-03T06:28:32.083Z,27.6
2017-12-03T06:29:32.171Z,27.6
2017-12-03T06:30:30.075Z,27.6
2017-12-03T06:31:32.264Z,27.6
2017-12-03T06:32:32.362Z,27.6
2017-12-03T06:33:30.505Z,27.6
2017-12-03T06:34:30.557Z,27.6
2017-12-03T06:35:32.519Z,27.6
2017-12-03T06:36:30.469Z,27.5
2017-12-03T06:37:30.546Z,27.6
2017-12-03T06:38:32.730Z,27.5
2017-12-03T06:39:32.545Z,27.5
2017-12-03T06:40:32.589Z,27.5
2017-12-03T06:41:32.616Z,27.5
2017-12-03T06:42:32.910Z,27.5
2017-12-03T06:43:32.719Z,27.6
2017-12-03T06:44:30.841Z,27.5
2017-12-03T06:45:32.925Z,27.6
2017-12-03T06:46:32.832Z,27.6
2017-12-03T06:47:33.121Z,27.5
2017-12-03T06:48:31.317Z,27.5
2017-12-03T06:49:31.190Z,27.5
2017-12-03T06:50:33.106Z,27.5
2017-12-03T06:51:33.429Z,27.5
2017-12-03T06:52:31.334Z,27.5
2017-12-03T06:53:33.217Z,27.5
2017-12-03T06:54:31.573Z,27.5
2017-12-03T06:55:31.511Z,27.5
2017-12-03T06:56:33.587Z,27.5
2017-12-03T06:57:31.497Z,27.5
2017-12-03T06:58:31.777Z,27.5
2017-12-03T06:59:31.781Z,27.5
2017-12-03T07:00:33.778Z,27.5
2017-12-03T07:01:33.825Z,27.5
2017-12-03T07:02:33.827Z,27.5
2017-12-03T07:03:33.953Z,27.5
2017-12-03T07:04:33.736Z,27.5
2017-12-03T07:05:33.982Z,27.5
2017-12-03T07:06:34.045Z,27.5
2017-12-03T07:07:32.168Z,27.5
2017-12-03T07:08:33.906Z,27.5
2017-12-03T07:09:32.216Z,27.5
2017-12-03T07:10:32.227Z,27.5
2017-12-03T07:11:32.229Z,27.5
2017-12-03T07:12:34.003Z,27.5
2017-12-03T07:13:32.352Z,27.5
2017-12-03T07:14:34.040Z,27.5
2017-12-03T07:15:32.348Z,27.5
2017-12-03T07:16:34.304Z,27.5
2017-12-03T07:17:32.244Z,27.5
2017-12-03T07:18:32.515Z,27.5
2017-12-03T07:19:32.419Z,27.5
2017-12-03T07:20:32.452Z,27.5
2017-12-03T07:21:32.649Z,27.5
2017-12-03T07:22:32.747Z,27.5
2017-12-03T07:23:32.783Z,27.5
2017-12-03T07:24:34.765Z,27.5
2017-12-03T07:25:34.835Z,27.5
2017-12-03T07:26:34.660Z,27.5
2017-12-03T07:27:33.072Z,27.5
2017-12-03T07:28:32.926Z,27.5
2017-12-03T07:29:33.182Z,27.5
2017-12-03T07:30:33.055Z,27.5
2017-12-03T07:31:33.090Z,27.5
2017-12-03T07:32:33.124Z,27.5
2017-12-03T07:33:35.099Z,27.5
2017-12-03T07:34:35.335Z,27.5
2017-12-03T07:35:33.308Z,27.5
2017-12-03T07:36:35.277Z,27.5
2017-12-03T07:37:33.491Z,27.5
2017-12-03T07:38:33.410Z,27.5
2017-12-03T07:39:33.454Z,27.5
2017-12-03T07:40:33.716Z,27.5
2017-12-03T07:41:33.609Z,27.5
2017-12-03T07:42:33.614Z,27.5
2017-12-03T07:43:35.746Z,27.5
2017-12-03T07:44:33.694Z,27.5
2017-12-03T07:45:35.634Z,27.5
2017-12-03T07:46:35.878Z,27.5
2017-12-03T07:47:33.802Z,27.5
2017-12-03T07:48:33.812Z,27.5
2017-12-03T07:49:35.785Z,27.5
2017-12-03T07:50:36.040Z,27.5
2017-12-03T07:51:33.975Z,27.5
2017-12-03T07:52:34.240Z,27.5
2017-12-03T07:53:36.016Z,27.5
2017-12-03T07:54:34.179Z,27.5
2017-12-03T07:55:34.397Z,27.5
2017-12-03T07:56:36.367Z,27.5
2017-12-03T07:57:36.225Z,27.5
2017-12-03T07:58:34.552Z,27.5
2017-12-03T07:59:34.619Z,27.5
2017-12-03T08:00:36.378Z,27.5
2017-12-03T08:01:36.612Z,27.5
2017-12-03T08:02:34.548Z,27.5
2017-12-03T08:03:36.512Z,27.5
2017-12-03T08:04:36.763Z,27.5
2017-12-03T08:05:34.875Z,27.5
2017-12-03T08:06:34.781Z,27.5
2017-12-03T08:07:35.024Z,27.5
2017-12-03T08:08:35.062Z,27.5
2017-12-03T08:09:34.949Z,27.5
2017-12-03T08:10:37.157Z,27.5
2017-12-03T08:11:35.035Z,27.5
2017-12-03T08:12:35.049Z,27.5
2017-12-03T08:13:36.973Z,27.5
2017-12-03T08:14:35.365Z,27.5
2017-12-03T08:15:35.426Z,27.5
2017-12-03T08:16:35.453Z,27.5
2017-12-03T08:17:35.310Z,27.5
2017-12-03T08:18:35.359Z,27.5
2017-12-03T08:19:35.633Z,27.5
2017-12-03T08:20:35.647Z,27.5
2017-12-03T08:21:37.427Z,27.5
2017-12-03T08:22:37.435Z,27.5
2017-12-03T08:23:37.716Z,27.5
2017-12-03T08:24:37.815Z,27.4
2017-12-03T08:25:35.960Z,27.4
2017-12-03T08:26:35.944Z,27.4
2017-12-03T08:27:37.992Z,27.5
2017-12-03T08:28:38.052Z,27.5
2017-12-03T08:29:36.028Z,27.4
2017-12-03T08:30:36.151Z,27.4
2017-12-03T08:31:36.373Z,27.5
2017-12-03T08:32:36.436Z,27.4
2017-12-03T08:33:36.462Z,27.4
2017-12-03T08:34:36.295Z,27.4
2017-12-03T08:35:36.373Z,27.4
2017-12-03T08:36:36.651Z,27.4
2017-12-03T08:37:36.588Z,27.4
2017-12-03T08:38:38.441Z,27.4
2017-12-03T08:39:36.764Z,27.4
2017-12-03T08:40:36.774Z,27.4
2017-12-03T08:41:36.634Z,27.4
2017-12-03T08:42:36.693Z,27.4
2017-12-03T08:43:36.979Z,27.4
2017-12-03T08:44:38.758Z,27.4
2017-12-03T08:45:37.045Z,27.4
2017-12-03T08:46:36.926Z,27.4
2017-12-03T08:47:38.832Z,27.4
2017-12-03T08:48:37.003Z,27.4
2017-12-03T08:49:37.260Z,27.4
2017-12-03T08:50:39.090Z,27.4
2017-12-03T08:51:37.225Z,27.4
2017-12-03T08:52:37.296Z,27.4
2017-12-03T08:53:37.249Z,27.4
2017-12-03T08:54:39.458Z,27.4
2017-12-03T08:55:39.292Z,27.4
2017-12-03T08:56:39.552Z,27.4
2017-12-03T08:57:39.616Z,27.4
2017-12-03T08:58:39.410Z,27.4
2017-12-03T08:59:39.514Z,27.4
2017-12-03T09:00:39.568Z,27.4
2017-12-03T09:01:39.807Z,27.4
2017-12-03T09:02:37.745Z,27.4
2017-12-03T09:03:39.854Z,27.4
2017-12-03T09:04:37.831Z,27.4
2017-12-03T09:05:38.127Z,27.4
2017-12-03T09:06:38.117Z,27.3
2017-12-03T09:07:38.213Z,27.3
2017-12-03T09:08:38.262Z,27.3
2017-12-03T09:09:40.251Z,27.3
2017-12-03T09:10:38.414Z,27.3
2017-12-03T09:11:38.435Z,27.3
2017-12-03T09:12:38.290Z,27.3
2017-12-03T09:13:40.437Z,27.3
2017-12-03T09:14:38.418Z,27.3
2017-12-03T09:15:40.581Z,27.3
2017-12-03T09:16:40.806Z,27.3
2017-12-03T09:17:38.550Z,27.3
2017-12-03T09:18:40.663Z,27.3
2017-12-03T09:19:40.742Z,27.3
2017-12-03T09:20:38.750Z,27.3
2017-12-03T09:21:40.697Z,27.3
2017-12-03T09:22:39.014Z,27.3
2017-12-03T09:23:40.764Z,27.3
2017-12-03T09:24:40.805Z,27.3
2017-12-03T09:25:40.840Z,27.3
2017-12-03T09:26:40.843Z,27.3
2017-12-03T09:27:39.147Z,27.3
2017-12-03T09:28:39.014Z,27.3
2017-12-03T09:29:41.208Z,27.3
2017-12-03T09:30:41.250Z,27.3
2017-12-03T09:31:41.314Z,27.3
2017-12-03T09:32:39.401Z,27.3
2017-12-03T09:33:39.466Z,27.3
2017-12-03T09:34:41.248Z,27.3
2017-12-03T09:35:39.563Z,27.3
2017-12-03T09:36:39.599Z,27.3
2017-12-03T09:37:41.407Z,27.3
2017-12-03T09:38:41.487Z,27.3
2017-12-03T09:39:39.827Z,27.3
2017-12-03T09:40:39.794Z,27.3
2017-12-03T09:41:41.597Z,27.3
2017-12-03T09:42:39.968Z,27.3
2017-12-03T09:43:39.815Z,27.3
2017-12-03T09:44:41.983Z,27.3
2017-12-03T09:45:39.968Z,27.3
2017-12-03T09:46:40.234Z,27.3
2017-12-03T09:47:41.945Z,27.3
2017-12-03T09:48:40.296Z,27.3
2017-12-03T09:49:40.321Z,27.3
2017-12-03T09:50:42.070Z,27.3
2017-12-03T09:51:40.347Z,27.3
2017-12-03T09:52:42.209Z,27.3
2017-12-03T09:53:42.440Z,27.3
2017-12-03T09:54:42.226Z,27.3
2017-12-03T09:55:42.551Z,27.3
2017-12-03T09:56:40.654Z,27.3
2017-12-03T09:57:42.701Z,27.3
2017-12-03T09:58:40.639Z,27.3
2017-12-03T09:59:42.768Z,27.3
2017-12-03T10:00:40.912Z,27.3
2017-12-03T10:01:42.679Z,27.3
2017-12-03T10:02:40.971Z,27.3
2017-12-03T10:03:40.797Z,27.3
2017-12-03T10:04:40.884Z,27.3
2017-12-03T10:05:43.059Z,27.3
2017-12-03T10:06:42.865Z,27.3
2017-12-03T10:07:41.250Z,27.3
2017-12-03T10:08:41.043Z,27.2
2017-12-03T10:09:41.338Z,27.3
2017-12-03T10:10:41.290Z,27.3
2017-12-03T10:11:43.244Z,27.3
2017-12-03T10:12:43.364Z,27.3
2017-12-03T10:13:41.446Z,27.3
2017-12-03T10:14:43.429Z,27.3
2017-12-03T10:15:43.524Z,27.3
2017-12-03T10:16:41.581Z,27.2
2017-12-03T10:17:43.415Z,27.2
2017-12-03T10:18:41.561Z,27.2
2017-12-03T10:19:41.775Z,27.2
2017-12-03T10:20:43.530Z,27.2
2017-12-03T10:21:43.825Z,27.2
2017-12-03T10:22:43.918Z,27.2
2017-12-03T10:23:43.973Z,27.2
2017-12-03T10:24:42.045Z,27.2
2017-12-03T10:25:41.864Z,27.2
2017-12-03T10:26:42.102Z,27.2
2017-12-03T10:27:42.196Z,27.2
2017-12-03T10:28:43.975Z,27.2
2017-12-03T10:29:44.229Z,27.2
2017-12-03T10:30:44.253Z,27.2
2017-12-03T10:31:44.333Z,27.2
2017-12-03T10:32:42.201Z,27.2
2017-12-03T10:33:44.416Z,27.2
2017-12-03T10:34:44.439Z,27.2
2017-12-03T10:35:44.486Z,27.2
2017-12-03T10:36:44.553Z,27.2
2017-12-03T10:37:42.466Z,27.2
2017-12-03T10:38:44.641Z,27.2
2017-12-03T10:39:42.602Z,27.2
2017-12-03T10:40:44.560Z,27.2
2017-12-03T10:41:44.763Z,27.2
2017-12-03T10:42:44.834Z,27.2
2017-12-03T10:43:44.902Z,27.2
2017-12-03T10:44:44.962Z,27.2
2017-12-03T10:45:44.960Z,27.2
2017-12-03T10:46:44.876Z,27.2
2017-12-03T10:47:43.032Z,27.2
2017-12-03T10:48:45.228Z,27.2
2017-12-03T10:49:45.096Z,27.2
2017-12-03T10:50:43.280Z,27.2
2017-12-03T10:51:45.263Z,27.2
2017-12-03T10:52:45.492Z,27.2
2017-12-03T10:53:45.296Z,27.2
2017-12-03T10:54:43.449Z,27.2
2017-12-03T10:55:45.592Z,27.2
2017-12-03T10:56:43.747Z,27.2
2017-12-03T10:57:43.736Z,27.2
2017-12-03T10:58:45.823Z,27.2
2017-12-03T10:59:45.848Z,27.2
2017-12-03T11:00:46.036Z,27.2
2017-12-03T11:01:45.900Z,27.2
2017-12-03T11:02:43.959Z,27.2
2017-12-03T11:03:44.025Z,27.2
2017-12-03T11:04:46.014Z,27.2
2017-12-03T11:05:44.155Z,27.1
2017-12-03T11:06:43.986Z,27.1
2017-12-03T11:07:44.131Z,27.1
2017-12-03T11:08:44.025Z,27.1
2017-12-03T11:09:45.989Z,27.1
2017-12-03T11:10:45.999Z,27.1
2017-12-03T11:11:44.372Z,27.1
2017-12-03T11:12:44.262Z,27.1
2017-12-03T11:13:46.223Z,27.1
2017-12-03T11:14:46.476Z,27.1
2017-12-03T11:15:46.292Z,27.1
2017-12-03T11:16:46.503Z,27.1
2017-12-03T11:17:44.597Z,27.1
2017-12-03T11:18:46.560Z,27.1
2017-12-03T11:19:44.619Z,27.1
2017-12-03T11:20:46.366Z,27.1
2017-12-03T11:21:46.384Z,27.1
2017-12-03T11:22:44.550Z,27.1
2017-12-03T11:23:44.804Z,27
2017-12-03T11:24:46.801Z,27.1
2017-12-03T11:25:46.918Z,27.1
2017-12-03T11:26:46.821Z,27.1
2017-12-03T11:27:46.774Z,27.1
2017-12-03T11:28:46.848Z,27.1
2017-12-03T11:29:45.203Z,27.1
2017-12-03T11:30:51.489Z,27.1
2017-12-03T11:31:46.965Z,27.1
2017-12-03T11:32:47.025Z,27.1
2017-12-03T11:33:45.206Z,27.1
2017-12-03T11:34:45.231Z,27.1
2017-12-03T11:35:45.293Z,27.1
2017-12-03T11:36:47.451Z,27.1
2017-12-03T11:37:45.594Z,27.1
2017-12-03T11:38:47.405Z,27.1
2017-12-03T11:39:45.693Z,27.1
2017-12-03T11:40:47.698Z,27.1
2017-12-03T11:41:47.744Z,27.1
2017-12-03T11:42:45.864Z,27.1
2017-12-03T11:43:47.646Z,27.1
2017-12-03T11:44:47.911Z,27.1
2017-12-03T11:45:46.017Z,27.1
2017-12-03T11:46:47.795Z,27.1
2017-12-03T11:47:47.839Z,27.2
2017-12-03T11:48:45.958Z,27.2
2017-12-03T11:49:46.202Z,27.2
2017-12-03T11:50:47.962Z,27.2
2017-12-03T11:51:48.214Z,27.2
2017-12-03T11:52:48.091Z,27.2
2017-12-03T11:53:48.342Z,27.2
2017-12-03T11:54:48.380Z,27.2
2017-12-03T11:55:46.516Z,27.2
2017-12-03T11:56:48.235Z,27.2
2017-12-03T11:57:48.272Z,27.2
2017-12-03T11:58:46.402Z,27.2
2017-12-03T11:59:48.361Z,27.2
2017-12-03T12:00:48.633Z,27.2
2017-12-03T12:01:48.385Z,27.2
2017-12-03T12:02:48.451Z,27.2
2017-12-03T12:03:48.525Z,27.2
2017-12-03T12:04:46.667Z,27.2
2017-12-03T12:05:48.687Z,27.2
2017-12-03T12:06:46.801Z,27.2
2017-12-03T12:07:48.742Z,27.2
2017-12-03T12:08:47.158Z,27.2
2017-12-03T12:09:47.025Z,27.2
2017-12-03T12:10:49.009Z,27.2
2017-12-03T12:11:47.384Z,27.2
2017-12-03T12:12:49.145Z,27.1
2017-12-03T12:13:47.314Z,27.1
2017-12-03T12:14:49.508Z,27.1
2017-12-03T12:15:47.595Z,27.1
2017-12-03T12:16:47.486Z,27.1
2017-12-03T12:17:47.555Z,27.1
2017-12-03T12:18:47.546Z,27.1
2017-12-03T12:19:49.494Z,27.1
2017-12-03T12:20:47.633Z,27.1
2017-12-03T12:21:47.728Z,27.1
2017-12-03T12:22:49.734Z,27.1
2017-12-03T12:23:48.058Z,27.1
2017-12-03T12:24:48.181Z,27.1
2017-12-03T12:25:48.188Z,27.1
2017-12-03T12:26:49.997Z,27.1
2017-12-03T12:27:50.261Z,27.1
2017-12-03T12:28:48.369Z,27.1
2017-12-03T12:29:50.148Z,27.1
2017-12-03T12:30:50.195Z,27.1
2017-12-03T12:31:50.196Z,27.1
2017-12-03T12:32:50.446Z,27.2
2017-12-03T12:33:50.292Z,27.2
2017-12-03T12:34:48.654Z,27.2
2017-12-03T12:35:48.629Z,27.1
2017-12-03T12:36:48.473Z,27.1
2017-12-03T12:37:50.690Z,27.1
2017-12-03T12:38:50.542Z,27.2
2017-12-03T12:39:48.832Z,27.2
2017-12-03T12:40:48.721Z,27.2
2017-12-03T12:41:48.789Z,27.2
2017-12-03T12:42:49.090Z,27.2
2017-12-03T12:43:48.870Z,27.1
2017-12-03T12:44:51.053Z,27.1
2017-12-03T12:45:50.866Z,27.1
2017-12-03T12:46:51.132Z,27.1
2017-12-03T12:47:51.076Z,27.2
2017-12-03T12:48:49.302Z,27.2
2017-12-03T12:49:51.021Z,27.1
2017-12-03T12:50:49.318Z,27.2
2017-12-03T12:51:49.439Z,27.1
2017-12-03T12:52:51.402Z,27.1
2017-12-03T12:53:51.445Z,27.1
2017-12-03T12:54:51.461Z,27.1
2017-12-03T12:55:51.267Z,27.1
2017-12-03T12:56:49.399Z,27.1
2017-12-03T12:57:49.435Z,27.1
2017-12-03T12:58:51.572Z,27.1
2017-12-03T12:59:49.448Z,27.1
2017-12-03T13:00:51.632Z,27.1
2017-12-03T13:01:51.458Z,27.1
2017-12-03T13:02:49.532Z,27.1
2017-12-03T13:03:51.699Z,27.1
2017-12-03T13:04:51.562Z,27.1
2017-12-03T13:05:51.819Z,27.1
2017-12-03T13:06:49.662Z,27.1
2017-12-03T13:07:49.949Z,27.1
2017-12-03T13:08:51.942Z,27.1
2017-12-03T13:09:51.997Z,27.1
2017-12-03T13:10:49.928Z,27.2
2017-12-03T13:11:50.003Z,27.2
2017-12-03T13:12:50.056Z,27.2
2017-12-03T13:13:52.229Z,27.2
2017-12-03T13:14:52.088Z,27.2
2017-12-03T13:15:50.421Z,27.2
2017-12-03T13:16:52.645Z,27.2
2017-12-03T13:17:52.512Z,27.2
2017-12-03T13:18:52.559Z,27.2
2017-12-03T13:19:50.619Z,27.2
2017-12-03T13:20:50.628Z,27.2
2017-12-03T13:21:52.643Z,27.2